sensor_id;sensor_type;location;lat;lon;timestamp;P1;durP1;ratioP1;P2;durP2;ratioP2
19645;SDS011;9971;52.446;13.452;2023-09-08T00:03:26;7.37;;;6.17;;
19645;SDS011;9971;52.446;13.452;2023-09-08T00:08:28;6.40;;;5.90;;
19645;SDS011;9971;52.446;13.452;2023-09-08T00:13:36;6.20;;;5.53;;
19645;SDS011;9971;52.446;13.452;2023-09-08T00:18:41;8.40;;;6.53;;
19645;SDS011;9971;52.446;13.452;2023-09-08T00:23:43;6.30;;;5.70;;
19645;SDS011;9971;52.446;13.452;2023-09-08T00:28:47;7.05;;;6.20;;
19645;SDS011;9971;52.446;13.452;2023-09-08T00:33:49;7.03;;;6.40;;
19645;SDS011;9971;52.446;13.452;2023-09-08T00:38:52;6.47;;;5.90;;
19645;SDS011;9971;52.446;13.452;2023-09-08T00:43:55;6.87;;;6.30;;
19645;SDS011;9971;52.446;13.452;2023-09-08T00:48:58;6.27;;;5.73;;
19645;SDS011;9971;52.446;13.452;2023-09-08T00:54:00;6.30;;;5.80;;
19645;SDS011;9971;52.446;13.452;2023-09-08T00:59:04;6.72;;;6.12;;
19645;SDS011;9971;52.446;13.452;2023-09-08T01:04:07;6.03;;;5.53;;
19645;SDS011;9971;52.446;13.452;2023-09-08T01:09:11;7.67;;;6.53;;
19645;SDS011;9971;52.446;13.452;2023-09-08T01:14:17;7.33;;;6.73;;
19645;SDS011;9971;52.446;13.452;2023-09-08T01:19:24;6.63;;;6.03;;
19645;SDS011;9971;52.446;13.452;2023-09-08T01:25:06;7.30;;;6.62;;
19645;SDS011;9971;52.446;13.452;2023-09-08T01:29:55;7.13;;;6.50;;
19645;SDS011;9971;52.446;13.452;2023-09-08T01:35:02;7.17;;;6.63;;
19645;SDS011;9971;52.446;13.452;2023-09-08T01:40:05;7.17;;;6.58;;
19645;SDS011;9971;52.446;13.452;2023-09-08T01:45:11;6.70;;;6.20;;
19645;SDS011;9971;52.446;13.452;2023-09-08T01:50:15;7.80;;;6.93;;
19645;SDS011;9971;52.446;13.452;2023-09-08T01:55:18;7.62;;;6.92;;
19645;SDS011;9971;52.446;13.452;2023-09-08T02:00:21;8.35;;;7.60;;
19645;SDS011;9971;52.446;13.452;2023-09-08T02:05:24;7.58;;;6.97;;
19645;SDS011;9971;52.446;13.452;2023-09-08T02:10:27;7.63;;;6.97;;
19645;SDS011;9971;52.446;13.452;2023-09-08T02:15:31;7.70;;;7.00;;
19645;SDS011;9971;52.446;13.452;2023-09-08T02:20:34;7.67;;;7.08;;
19645;SDS011;9971;52.446;13.452;2023-09-08T02:25:36;7.72;;;7.05;;
19645;SDS011;9971;52.446;13.452;2023-09-08T02:30:39;7.28;;;6.67;;
19645;SDS011;9971;52.446;13.452;2023-09-08T02:35:41;8.10;;;7.40;;
19645;SDS011;9971;52.446;13.452;2023-09-08T02:40:44;7.90;;;7.20;;
19645;SDS011;9971;52.446;13.452;2023-09-08T02:45:47;8.33;;;7.53;;
19645;SDS011;9971;52.446;13.452;2023-09-08T02:50:49;8.45;;;7.65;;
19645;SDS011;9971;52.446;13.452;2023-09-08T02:55:51;8.70;;;8.00;;
19645;SDS011;9971;52.446;13.452;2023-09-08T03:00:54;8.80;;;8.08;;
19645;SDS011;9971;52.446;13.452;2023-09-08T03:05:56;7.67;;;7.08;;
19645;SDS011;9971;52.446;13.452;2023-09-08T03:10:58;8.23;;;7.53;;
19645;SDS011;9971;52.446;13.452;2023-09-08T03:16:02;8.28;;;7.58;;
19645;SDS011;9971;52.446;13.452;2023-09-08T03:21:06;8.67;;;7.87;;
19645;SDS011;9971;52.446;13.452;2023-09-08T03:26:11;9.47;;;8.47;;
19645;SDS011;9971;52.446;13.452;2023-09-08T03:31:16;8.30;;;7.60;;
19645;SDS011;9971;52.446;13.452;2023-09-08T03:36:18;7.47;;;6.80;;
19645;SDS011;9971;52.446;13.452;2023-09-08T03:41:21;8.98;;;8.10;;
19645;SDS011;9971;52.446;13.452;2023-09-08T03:46:24;9.03;;;8.23;;
19645;SDS011;9971;52.446;13.452;2023-09-08T03:51:27;8.10;;;7.40;;
19645;SDS011;9971;52.446;13.452;2023-09-08T03:56:30;8.03;;;7.43;;
19645;SDS011;9971;52.446;13.452;2023-09-08T04:01:33;8.58;;;7.87;;
19645;SDS011;9971;52.446;13.452;2023-09-08T04:06:36;8.53;;;7.83;;
19645;SDS011;9971;52.446;13.452;2023-09-08T04:11:40;8.20;;;7.50;;
19645;SDS011;9971;52.446;13.452;2023-09-08T04:16:43;8.90;;;8.10;;
19645;SDS011;9971;52.446;13.452;2023-09-08T04:21:46;9.80;;;8.87;;
19645;SDS011;9971;52.446;13.452;2023-09-08T04:26:48;10.70;;;9.80;;
19645;SDS011;9971;52.446;13.452;2023-09-08T04:31:51;8.75;;;8.05;;
19645;SDS011;9971;52.446;13.452;2023-09-08T04:36:54;9.63;;;8.73;;
19645;SDS011;9971;52.446;13.452;2023-09-08T04:41:56;8.93;;;8.13;;
19645;SDS011;9971;52.446;13.452;2023-09-08T04:46:58;9.08;;;8.28;;
19645;SDS011;9971;52.446;13.452;2023-09-08T04:52:01;10.65;;;9.65;;
19645;SDS011;9971;52.446;13.452;2023-09-08T04:57:05;9.65;;;8.78;;
19645;SDS011;9971;52.446;13.452;2023-09-08T05:02:07;9.05;;;8.25;;
19645;SDS011;9971;52.446;13.452;2023-09-08T05:07:09;9.10;;;8.28;;
19645;SDS011;9971;52.446;13.452;2023-09-08T05:12:13;9.57;;;8.77;;
19645;SDS011;9971;52.446;13.452;2023-09-08T05:17:15;8.65;;;7.90;;
19645;SDS011;9971;52.446;13.452;2023-09-08T05:22:18;9.35;;;8.55;;
19645;SDS011;9971;52.446;13.452;2023-09-08T05:27:20;10.82;;;9.68;;
19645;SDS011;9971;52.446;13.452;2023-09-08T05:32:23;9.35;;;8.65;;
19645;SDS011;9971;52.446;13.452;2023-09-08T05:37:25;10.30;;;9.33;;
19645;SDS011;9971;52.446;13.452;2023-09-08T05:42:28;9.65;;;8.80;;
19645;SDS011;9971;52.446;13.452;2023-09-08T05:47:30;9.55;;;8.68;;
19645;SDS011;9971;52.446;13.452;2023-09-08T05:52:32;9.13;;;8.23;;
19645;SDS011;9971;52.446;13.452;2023-09-08T05:57:35;10.00;;;9.00;;
19645;SDS011;9971;52.446;13.452;2023-09-08T06:02:37;9.80;;;8.75;;
19645;SDS011;9971;52.446;13.452;2023-09-08T06:07:39;12.67;;;8.43;;
19645;SDS011;9971;52.446;13.452;2023-09-08T06:12:42;10.40;;;8.28;;
19645;SDS011;9971;52.446;13.452;2023-09-08T06:17:45;9.53;;;8.63;;
19645;SDS011;9971;52.446;13.452;2023-09-08T06:22:47;8.58;;;7.78;;
19645;SDS011;9971;52.446;13.452;2023-09-08T06:27:50;8.50;;;7.80;;
19645;SDS011;9971;52.446;13.452;2023-09-08T06:32:52;8.30;;;7.50;;
19645;SDS011;9971;52.446;13.452;2023-09-08T06:37:56;9.05;;;7.87;;
19645;SDS011;9971;52.446;13.452;2023-09-08T06:42:59;7.73;;;7.03;;
19645;SDS011;9971;52.446;13.452;2023-09-08T06:48:01;7.20;;;6.47;;
19645;SDS011;9971;52.446;13.452;2023-09-08T06:53:04;7.47;;;6.83;;
19645;SDS011;9971;52.446;13.452;2023-09-08T06:58:09;6.70;;;6.20;;
19645;SDS011;9971;52.446;13.452;2023-09-08T07:03:26;7.83;;;6.90;;
19645;SDS011;9971;52.446;13.452;2023-09-08T07:08:52;6.30;;;5.70;;
19645;SDS011;9971;52.446;13.452;2023-09-08T07:30:20;7.00;;;5.92;;
19645;SDS011;9971;52.446;13.452;2023-09-08T07:35:36;6.80;;;6.20;;
19645;SDS011;9971;52.446;13.452;2023-09-08T07:40:42;6.30;;;5.80;;
19645;SDS011;9971;52.446;13.452;2023-09-08T07:45:53;6.10;;;5.60;;
19645;SDS011;9971;52.446;13.452;2023-09-08T08:01:28;6.90;;;5.63;;
19645;SDS011;9971;52.446;13.452;2023-09-08T08:06:49;5.30;;;4.90;;
19645;SDS011;9971;52.446;13.452;2023-09-08T08:11:58;5.63;;;5.13;;
19645;SDS011;9971;52.446;13.452;2023-09-08T08:17:07;5.80;;;5.30;;
19645;SDS011;9971;52.446;13.452;2023-09-08T08:22:11;5.40;;;4.90;;
19645;SDS011;9971;52.446;13.452;2023-09-08T08:27:14;5.03;;;4.60;;
19645;SDS011;9971;52.446;13.452;2023-09-08T08:32:18;5.23;;;4.83;;
19645;SDS011;9971;52.446;13.452;2023-09-08T08:37:22;4.93;;;4.37;;
19645;SDS011;9971;52.446;13.452;2023-09-08T08:42:30;5.60;;;4.70;;
19645;SDS011;9971;52.446;13.452;2023-09-08T08:47:27;4.95;;;4.55;;
19645;SDS011;9971;52.446;13.452;2023-09-08T08:52:32;7.07;;;5.20;;
19645;SDS011;9971;52.446;13.452;2023-09-08T08:57:40;5.10;;;4.60;;
19645;SDS011;9971;52.446;13.452;2023-09-08T09:19:09;5.87;;;4.20;;
19645;SDS011;9971;52.446;13.452;2023-09-08T09:24:14;4.72;;;4.25;;
19645;SDS011;9971;52.446;13.452;2023-09-08T09:29:16;4.83;;;4.35;;
19645;SDS011;9971;52.446;13.452;2023-09-08T09:34:20;4.72;;;4.33;;
19645;SDS011;9971;52.446;13.452;2023-09-08T09:39:22;4.40;;;4.03;;
19645;SDS011;9971;52.446;13.452;2023-09-08T09:44:24;4.33;;;3.92;;
19645;SDS011;9971;52.446;13.452;2023-09-08T09:49:25;4.75;;;4.35;;
19645;SDS011;9971;52.446;13.452;2023-09-08T09:54:29;4.58;;;4.12;;
19645;SDS011;9971;52.446;13.452;2023-09-08T09:59:31;5.10;;;4.07;;
19645;SDS011;9971;52.446;13.452;2023-09-08T10:04:34;4.20;;;3.90;;
19645;SDS011;9971;52.446;13.452;2023-09-08T10:09:36;4.45;;;4.03;;
19645;SDS011;9971;52.446;13.452;2023-09-08T10:14:40;3.87;;;3.58;;
19645;SDS011;9971;52.446;13.452;2023-09-08T10:19:42;4.67;;;3.98;;
19645;SDS011;9971;52.446;13.452;2023-09-08T10:24:43;4.30;;;4.00;;
19645;SDS011;9971;52.446;13.452;2023-09-08T10:29:45;4.03;;;3.63;;
19645;SDS011;9971;52.446;13.452;2023-09-08T10:34:47;4.08;;;3.45;;
19645;SDS011;9971;52.446;13.452;2023-09-08T10:39:49;3.70;;;3.40;;
19645;SDS011;9971;52.446;13.452;2023-09-08T10:44:55;4.05;;;3.42;;
19645;SDS011;9971;52.446;13.452;2023-09-08T10:49:57;5.10;;;3.70;;
19645;SDS011;9971;52.446;13.452;2023-09-08T10:54:59;3.65;;;3.35;;
19645;SDS011;9971;52.446;13.452;2023-09-08T11:00:03;4.03;;;3.35;;
19645;SDS011;9971;52.446;13.452;2023-09-08T11:05:14;4.93;;;3.80;;
19645;SDS011;9971;52.446;13.452;2023-09-08T11:10:16;5.30;;;3.33;;
19645;SDS011;9971;52.446;13.452;2023-09-08T11:15:19;3.80;;;3.50;;
19645;SDS011;9971;52.446;13.452;2023-09-08T11:20:26;4.17;;;3.58;;
19645;SDS011;9971;52.446;13.452;2023-09-08T11:25:27;4.03;;;3.62;;
19645;SDS011;9971;52.446;13.452;2023-09-08T11:30:30;4.17;;;3.60;;
19645;SDS011;9971;52.446;13.452;2023-09-08T11:35:33;3.97;;;3.57;;
19645;SDS011;9971;52.446;13.452;2023-09-08T11:40:37;4.03;;;3.50;;
19645;SDS011;9971;52.446;13.452;2023-09-08T11:45:39;3.37;;;3.17;;
19645;SDS011;9971;52.446;13.452;2023-09-08T11:50:41;3.58;;;3.27;;
19645;SDS011;9971;52.446;13.452;2023-09-08T11:55:43;3.27;;;2.92;;
19645;SDS011;9971;52.446;13.452;2023-09-08T12:00:45;4.50;;;3.25;;
19645;SDS011;9971;52.446;13.452;2023-09-08T12:05:50;3.20;;;3.00;;
19645;SDS011;9971;52.446;13.452;2023-09-08T12:10:49;3.95;;;3.65;;
19645;SDS011;9971;52.446;13.452;2023-09-08T12:15:52;3.37;;;3.17;;
19645;SDS011;9971;52.446;13.452;2023-09-08T12:21:02;4.17;;;2.87;;
19645;SDS011;9971;52.446;13.452;2023-09-08T12:25:56;3.72;;;3.40;;
19645;SDS011;9971;52.446;13.452;2023-09-08T12:30:58;3.67;;;3.15;;
19645;SDS011;9971;52.446;13.452;2023-09-08T12:36:09;3.60;;;3.30;;
19645;SDS011;9971;52.446;13.452;2023-09-08T12:41:02;3.85;;;3.10;;
19645;SDS011;9971;52.446;13.452;2023-09-08T12:46:04;3.55;;;3.27;;
19645;SDS011;9971;52.446;13.452;2023-09-08T12:51:07;3.67;;;3.42;;
19645;SDS011;9971;52.446;13.452;2023-09-08T12:56:09;4.65;;;3.27;;
19645;SDS011;9971;52.446;13.452;2023-09-08T13:01:12;3.05;;;2.85;;
19645;SDS011;9971;52.446;13.452;2023-09-08T13:06:14;3.65;;;3.35;;
19645;SDS011;9971;52.446;13.452;2023-09-08T13:11:17;4.25;;;3.27;;
19645;SDS011;9971;52.446;13.452;2023-09-08T13:16:20;3.42;;;3.12;;
19645;SDS011;9971;52.446;13.452;2023-09-08T13:21:22;3.35;;;3.05;;
19645;SDS011;9971;52.446;13.452;2023-09-08T13:26:24;3.17;;;2.98;;
19645;SDS011;9971;52.446;13.452;2023-09-08T13:31:27;3.22;;;3.00;;
19645;SDS011;9971;52.446;13.452;2023-09-08T13:36:29;3.67;;;3.37;;
19645;SDS011;9971;52.446;13.452;2023-09-08T13:46:54;3.63;;;3.33;;
19645;SDS011;9971;52.446;13.452;2023-09-08T13:51:56;3.52;;;3.20;;
19645;SDS011;9971;52.446;13.452;2023-09-08T13:57:00;3.60;;;3.17;;
19645;SDS011;9971;52.446;13.452;2023-09-08T14:02:01;3.02;;;2.83;;
19645;SDS011;9971;52.446;13.452;2023-09-08T14:07:03;3.10;;;2.90;;
19645;SDS011;9971;52.446;13.452;2023-09-08T14:12:06;3.35;;;3.05;;
19645;SDS011;9971;52.446;13.452;2023-09-08T14:17:09;3.95;;;3.47;;
19645;SDS011;9971;52.446;13.452;2023-09-08T14:22:12;3.17;;;2.87;;
19645;SDS011;9971;52.446;13.452;2023-09-08T14:27:14;3.47;;;2.90;;
19645;SDS011;9971;52.446;13.452;2023-09-08T14:32:16;3.90;;;3.30;;
19645;SDS011;9971;52.446;13.452;2023-09-08T14:37:19;3.30;;;3.00;;
19645;SDS011;9971;52.446;13.452;2023-09-08T14:42:22;4.15;;;3.05;;
19645;SDS011;9971;52.446;13.452;2023-09-08T14:47:24;3.10;;;2.80;;
19645;SDS011;9971;52.446;13.452;2023-09-08T14:52:27;3.03;;;2.70;;
19645;SDS011;9971;52.446;13.452;2023-09-08T14:57:29;3.42;;;3.12;;
19645;SDS011;9971;52.446;13.452;2023-09-08T15:02:32;3.47;;;3.17;;
19645;SDS011;9971;52.446;13.452;2023-09-08T15:07:34;3.42;;;3.12;;
19645;SDS011;9971;52.446;13.452;2023-09-08T15:12:37;3.17;;;2.92;;
19645;SDS011;9971;52.446;13.452;2023-09-08T15:17:39;3.87;;;3.10;;
19645;SDS011;9971;52.446;13.452;2023-09-08T15:22:41;3.60;;;3.33;;
19645;SDS011;9971;52.446;13.452;2023-09-08T15:27:44;4.55;;;3.33;;
19645;SDS011;9971;52.446;13.452;2023-09-08T15:32:46;3.75;;;3.22;;
19645;SDS011;9971;52.446;13.452;2023-09-08T15:37:49;3.83;;;3.52;;
19645;SDS011;9971;52.446;13.452;2023-09-08T15:42:51;4.37;;;3.35;;
19645;SDS011;9971;52.446;13.452;2023-09-08T15:47:53;3.77;;;3.47;;
19645;SDS011;9971;52.446;13.452;2023-09-08T15:52:56;3.47;;;3.17;;
19645;SDS011;9971;52.446;13.452;2023-09-08T15:57:58;3.50;;;3.20;;
19645;SDS011;9971;52.446;13.452;2023-09-08T16:03:01;4.67;;;4.00;;
19645;SDS011;9971;52.446;13.452;2023-09-08T16:08:04;3.55;;;3.25;;
19645;SDS011;9971;52.446;13.452;2023-09-08T16:13:06;4.12;;;3.83;;
19645;SDS011;9971;52.446;13.452;2023-09-08T16:18:09;4.03;;;3.27;;
19645;SDS011;9971;52.446;13.452;2023-09-08T16:23:11;5.95;;;3.55;;
19645;SDS011;9971;52.446;13.452;2023-09-08T16:28:14;4.28;;;3.87;;
19645;SDS011;9971;52.446;13.452;2023-09-08T16:33:16;4.40;;;3.83;;
19645;SDS011;9971;52.446;13.452;2023-09-08T16:38:19;4.03;;;3.67;;
19645;SDS011;9971;52.446;13.452;2023-09-08T16:43:22;4.10;;;3.80;;
19645;SDS011;9971;52.446;13.452;2023-09-08T16:48:24;5.42;;;3.90;;
19645;SDS011;9971;52.446;13.452;2023-09-08T16:53:27;5.53;;;4.50;;
19645;SDS011;9971;52.446;13.452;2023-09-08T16:58:29;4.58;;;4.17;;
19645;SDS011;9971;52.446;13.452;2023-09-08T17:03:32;4.65;;;4.12;;
19645;SDS011;9971;52.446;13.452;2023-09-08T17:08:34;5.37;;;4.97;;
19645;SDS011;9971;52.446;13.452;2023-09-08T17:13:37;5.00;;;4.53;;
19645;SDS011;9971;52.446;13.452;2023-09-08T17:18:39;6.87;;;6.17;;
19645;SDS011;9971;52.446;13.452;2023-09-08T17:23:42;6.35;;;5.40;;
19645;SDS011;9971;52.446;13.452;2023-09-08T17:28:44;3.45;;;3.15;;
19645;SDS011;9971;52.446;13.452;2023-09-08T17:33:46;1.62;;;1.52;;
19645;SDS011;9971;52.446;13.452;2023-09-08T17:38:49;0.73;;;0.73;;
19645;SDS011;9971;52.446;13.452;2023-09-08T17:43:51;0.98;;;0.30;;
19645;SDS011;9971;52.446;13.452;2023-09-08T17:48:54;0.20;;;0.20;;
19645;SDS011;9971;52.446;13.452;2023-09-08T17:53:57;0.10;;;0.10;;
19645;SDS011;9971;52.446;13.452;2023-09-08T17:59:00;0.20;;;0.20;;
19645;SDS011;9971;52.446;13.452;2023-09-08T18:04:02;0.28;;;0.28;;
19645;SDS011;9971;52.446;13.452;2023-09-08T18:09:05;0.45;;;0.30;;
19645;SDS011;9971;52.446;13.452;2023-09-08T18:14:07;0.25;;;0.25;;
19645;SDS011;9971;52.446;13.452;2023-09-08T18:19:10;0.40;;;0.40;;
19645;SDS011;9971;52.446;13.452;2023-09-08T18:24:12;0.42;;;0.42;;
19645;SDS011;9971;52.446;13.452;2023-09-08T18:29:14;0.35;;;0.35;;
19645;SDS011;9971;52.446;13.452;2023-09-08T18:34:17;0.78;;;0.78;;
19645;SDS011;9971;52.446;13.452;2023-09-08T18:39:19;0.88;;;0.88;;
19645;SDS011;9971;52.446;13.452;2023-09-08T18:44:22;0.80;;;0.80;;
19645;SDS011;9971;52.446;13.452;2023-09-08T18:49:24;1.10;;;1.00;;
19645;SDS011;9971;52.446;13.452;2023-09-08T18:54:27;1.50;;;1.30;;
19645;SDS011;9971;52.446;13.452;2023-09-08T18:59:29;0.90;;;0.90;;
19645;SDS011;9971;52.446;13.452;2023-09-08T19:04:32;0.98;;;0.98;;
19645;SDS011;9971;52.446;13.452;2023-09-08T19:09:34;1.03;;;0.93;;
19645;SDS011;9971;52.446;13.452;2023-09-08T19:14:37;0.95;;;0.95;;
19645;SDS011;9971;52.446;13.452;2023-09-08T19:19:39;0.80;;;0.80;;
19645;SDS011;9971;52.446;13.452;2023-09-08T19:24:42;1.20;;;1.10;;
19645;SDS011;9971;52.446;13.452;2023-09-08T19:29:47;0.83;;;0.83;;
19645;SDS011;9971;52.446;13.452;2023-09-08T19:34:49;0.75;;;0.75;;
19645;SDS011;9971;52.446;13.452;2023-09-08T19:39:50;0.90;;;0.90;;
19645;SDS011;9971;52.446;13.452;2023-09-08T19:44:53;0.65;;;0.65;;
19645;SDS011;9971;52.446;13.452;2023-09-08T19:49:55;0.80;;;0.80;;
19645;SDS011;9971;52.446;13.452;2023-09-08T19:54:59;0.90;;;0.90;;
19645;SDS011;9971;52.446;13.452;2023-09-08T20:00:02;0.80;;;0.80;;
19645;SDS011;9971;52.446;13.452;2023-09-08T20:05:04;0.73;;;0.73;;
19645;SDS011;9971;52.446;13.452;2023-09-08T20:10:07;0.88;;;0.88;;
19645;SDS011;9971;52.446;13.452;2023-09-08T20:15:10;0.90;;;0.90;;
19645;SDS011;9971;52.446;13.452;2023-09-08T20:20:12;1.00;;;1.00;;
19645;SDS011;9971;52.446;13.452;2023-09-08T20:25:15;0.65;;;0.65;;
19645;SDS011;9971;52.446;13.452;2023-09-08T20:30:19;0.72;;;0.72;;
19645;SDS011;9971;52.446;13.452;2023-09-08T20:35:21;0.95;;;0.95;;
19645;SDS011;9971;52.446;13.452;2023-09-08T20:40:24;0.72;;;0.72;;
19645;SDS011;9971;52.446;13.452;2023-09-08T20:45:26;0.93;;;0.93;;
19645;SDS011;9971;52.446;13.452;2023-09-08T20:50:28;0.90;;;0.90;;
19645;SDS011;9971;52.446;13.452;2023-09-08T20:55:31;0.77;;;0.77;;
19645;SDS011;9971;52.446;13.452;2023-09-08T21:00:34;0.80;;;0.80;;
19645;SDS011;9971;52.446;13.452;2023-09-08T21:05:37;0.68;;;0.68;;
19645;SDS011;9971;52.446;13.452;2023-09-08T21:10:40;0.70;;;0.70;;
19645;SDS011;9971;52.446;13.452;2023-09-08T21:15:45;0.80;;;0.80;;
19645;SDS011;9971;52.446;13.452;2023-09-08T21:20:48;1.10;;;1.10;;
19645;SDS011;9971;52.446;13.452;2023-09-08T21:25:51;0.90;;;0.90;;
19645;SDS011;9971;52.446;13.452;2023-09-08T21:31:02;0.70;;;0.70;;
19645;SDS011;9971;52.446;13.452;2023-09-08T21:36:05;0.90;;;0.90;;
19645;SDS011;9971;52.446;13.452;2023-09-08T21:41:10;0.87;;;0.87;;
19645;SDS011;9971;52.446;13.452;2023-09-08T21:46:12;0.80;;;0.80;;
19645;SDS011;9971;52.446;13.452;2023-09-08T21:51:15;0.82;;;0.82;;
19645;SDS011;9971;52.446;13.452;2023-09-08T21:56:20;0.83;;;0.83;;
19645;SDS011;9971;52.446;13.452;2023-09-08T22:01:24;1.63;;;1.20;;
19645;SDS011;9971;52.446;13.452;2023-09-08T22:06:27;1.00;;;1.00;;
19645;SDS011;9971;52.446;13.452;2023-09-08T22:11:30;0.90;;;0.90;;
19645;SDS011;9971;52.446;13.452;2023-09-08T22:16:34;0.70;;;0.70;;
19645;SDS011;9971;52.446;13.452;2023-09-08T22:21:38;0.80;;;0.80;;
19645;SDS011;9971;52.446;13.452;2023-09-08T22:26:40;1.00;;;1.00;;
19645;SDS011;9971;52.446;13.452;2023-09-08T22:31:42;1.25;;;1.17;;
19645;SDS011;9971;52.446;13.452;2023-09-08T22:36:45;1.05;;;1.05;;
19645;SDS011;9971;52.446;13.452;2023-09-08T22:41:48;1.07;;;1.07;;
19645;SDS011;9971;52.446;13.452;2023-09-08T22:46:50;1.70;;;1.17;;
19645;SDS011;9971;52.446;13.452;2023-09-08T22:51:54;1.15;;;1.15;;
19645;SDS011;9971;52.446;13.452;2023-09-08T22:56:57;1.20;;;1.20;;
19645;SDS011;9971;52.446;13.452;2023-09-08T23:18:05;1.30;;;1.20;;
19645;SDS011;9971;52.446;13.452;2023-09-08T23:23:09;1.07;;;1.07;;
19645;SDS011;9971;52.446;13.452;2023-09-08T23:28:15;1.27;;;1.15;;
19645;SDS011;9971;52.446;13.452;2023-09-08T23:33:17;1.30;;;1.30;;
19645;SDS011;9971;52.446;13.452;2023-09-08T23:38:20;1.50;;;1.40;;
19645;SDS011;9971;52.446;13.452;2023-09-08T23:43:23;1.60;;;1.50;;
19645;SDS011;9971;52.446;13.452;2023-09-08T23:48:25;1.50;;;1.40;;
19645;SDS011;9971;52.446;13.452;2023-09-08T23:53:28;1.40;;;1.30;;
19645;SDS011;9971;52.446;13.452;2023-09-08T23:58:31;1.40;;;1.30;;
